sensor_id;sensor_type;location;lat;lon;timestamp;P1;durP1;ratioP1;P2;durP2;ratioP2
65096;SDS011;51686;46.758;4.356;2024-03-25T00:00:30;6.53;;;2.83;;
65096;SDS011;51686;46.758;4.356;2024-03-25T00:03:16;5.68;;;2.80;;
65096;SDS011;51686;46.758;4.356;2024-03-25T00:06:02;7.40;;;2.72;;
65096;SDS011;51686;46.758;4.356;2024-03-25T00:08:49;6.72;;;2.72;;
65096;SDS011;51686;46.758;4.356;2024-03-25T00:11:34;6.82;;;2.72;;
65096;SDS011;51686;46.758;4.356;2024-03-25T00:14:21;5.28;;;2.58;;
65096;SDS011;51686;46.758;4.356;2024-03-25T00:17:07;6.38;;;2.55;;
65096;SDS011;51686;46.758;4.356;2024-03-25T00:19:56;6.97;;;2.80;;
65096;SDS011;51686;46.758;4.356;2024-03-25T00:22:43;6.55;;;2.58;;
65096;SDS011;51686;46.758;4.356;2024-03-25T00:25:29;6.07;;;2.45;;
65096;SDS011;51686;46.758;4.356;2024-03-25T00:28:15;5.45;;;2.70;;
65096;SDS011;51686;46.758;4.356;2024-03-25T00:31:01;6.18;;;2.60;;
65096;SDS011;51686;46.758;4.356;2024-03-25T00:33:47;6.63;;;2.88;;
65096;SDS011;51686;46.758;4.356;2024-03-25T00:36:33;7.25;;;2.70;;
65096;SDS011;51686;46.758;4.356;2024-03-25T00:39:19;6.43;;;2.92;;
65096;SDS011;51686;46.758;4.356;2024-03-25T00:42:05;6.53;;;2.60;;
65096;SDS011;51686;46.758;4.356;2024-03-25T00:44:51;6.80;;;2.80;;
65096;SDS011;51686;46.758;4.356;2024-03-25T00:47:37;7.20;;;2.88;;
65096;SDS011;51686;46.758;4.356;2024-03-25T00:50:23;6.68;;;2.75;;
65096;SDS011;51686;46.758;4.356;2024-03-25T00:53:09;8.13;;;2.95;;
65096;SDS011;51686;46.758;4.356;2024-03-25T00:55:55;8.65;;;2.83;;
65096;SDS011;51686;46.758;4.356;2024-03-25T00:58:41;5.90;;;2.58;;
65096;SDS011;51686;46.758;4.356;2024-03-25T01:01:27;7.32;;;2.75;;
65096;SDS011;51686;46.758;4.356;2024-03-25T01:04:13;6.07;;;2.63;;
65096;SDS011;51686;46.758;4.356;2024-03-25T01:06:59;6.10;;;2.60;;
65096;SDS011;51686;46.758;4.356;2024-03-25T01:09:45;5.47;;;2.40;;
65096;SDS011;51686;46.758;4.356;2024-03-25T01:12:31;7.63;;;2.90;;
65096;SDS011;51686;46.758;4.356;2024-03-25T01:15:17;6.75;;;2.60;;
65096;SDS011;51686;46.758;4.356;2024-03-25T01:18:03;7.25;;;2.90;;
65096;SDS011;51686;46.758;4.356;2024-03-25T01:20:49;6.63;;;2.90;;
65096;SDS011;51686;46.758;4.356;2024-03-25T01:23:35;7.88;;;2.90;;
65096;SDS011;51686;46.758;4.356;2024-03-25T01:26:21;5.30;;;2.40;;
65096;SDS011;51686;46.758;4.356;2024-03-25T01:29:07;7.38;;;2.80;;
65096;SDS011;51686;46.758;4.356;2024-03-25T01:31:53;6.88;;;2.83;;
65096;SDS011;51686;46.758;4.356;2024-03-25T01:34:39;7.63;;;2.90;;
65096;SDS011;51686;46.758;4.356;2024-03-25T01:37:25;6.93;;;2.85;;
65096;SDS011;51686;46.758;4.356;2024-03-25T01:40:11;5.47;;;2.58;;
65096;SDS011;51686;46.758;4.356;2024-03-25T01:43:01;6.43;;;2.83;;
65096;SDS011;51686;46.758;4.356;2024-03-25T01:45:48;6.35;;;2.80;;
65096;SDS011;51686;46.758;4.356;2024-03-25T01:48:34;7.38;;;3.20;;
65096;SDS011;51686;46.758;4.356;2024-03-25T01:51:20;6.93;;;2.97;;
65096;SDS011;51686;46.758;4.356;2024-03-25T01:54:07;7.28;;;2.85;;
65096;SDS011;51686;46.758;4.356;2024-03-25T01:56:54;6.75;;;2.90;;
65096;SDS011;51686;46.758;4.356;2024-03-25T01:59:41;7.30;;;3.10;;
65096;SDS011;51686;46.758;4.356;2024-03-25T02:02:27;7.38;;;3.08;;
65096;SDS011;51686;46.758;4.356;2024-03-25T02:05:17;7.07;;;2.83;;
65096;SDS011;51686;46.758;4.356;2024-03-25T02:08:04;6.70;;;2.97;;
65096;SDS011;51686;46.758;4.356;2024-03-25T02:10:52;6.90;;;3.20;;
65096;SDS011;51686;46.758;4.356;2024-03-25T02:13:40;7.55;;;3.05;;
65096;SDS011;51686;46.758;4.356;2024-03-25T02:16:26;8.10;;;3.20;;
65096;SDS011;51686;46.758;4.356;2024-03-25T02:19:12;6.85;;;3.00;;
65096;SDS011;51686;46.758;4.356;2024-03-25T02:21:59;6.95;;;2.97;;
65096;SDS011;51686;46.758;4.356;2024-03-25T02:24:45;6.32;;;2.63;;
65096;SDS011;51686;46.758;4.356;2024-03-25T02:27:32;6.50;;;3.00;;
65096;SDS011;51686;46.758;4.356;2024-03-25T02:30:18;8.75;;;3.38;;
65096;SDS011;51686;46.758;4.356;2024-03-25T02:33:03;7.88;;;3.10;;
65096;SDS011;51686;46.758;4.356;2024-03-25T02:35:50;6.93;;;2.80;;
65096;SDS011;51686;46.758;4.356;2024-03-25T02:38:35;7.10;;;3.08;;
65096;SDS011;51686;46.758;4.356;2024-03-25T02:41:21;8.20;;;3.00;;
65096;SDS011;51686;46.758;4.356;2024-03-25T02:44:10;6.28;;;2.75;;
65096;SDS011;51686;46.758;4.356;2024-03-25T02:46:56;7.55;;;3.03;;
65096;SDS011;51686;46.758;4.356;2024-03-25T02:49:42;7.32;;;3.03;;
65096;SDS011;51686;46.758;4.356;2024-03-25T02:52:28;6.25;;;2.92;;
65096;SDS011;51686;46.758;4.356;2024-03-25T02:55:14;7.07;;;3.03;;
65096;SDS011;51686;46.758;4.356;2024-03-25T02:58:00;6.70;;;2.80;;
65096;SDS011;51686;46.758;4.356;2024-03-25T03:00:46;7.03;;;3.00;;
65096;SDS011;51686;46.758;4.356;2024-03-25T03:03:32;7.10;;;3.03;;
65096;SDS011;51686;46.758;4.356;2024-03-25T03:06:18;6.43;;;2.72;;
65096;SDS011;51686;46.758;4.356;2024-03-25T03:09:04;6.35;;;3.05;;
65096;SDS011;51686;46.758;4.356;2024-03-25T03:11:51;6.13;;;2.90;;
65096;SDS011;51686;46.758;4.356;2024-03-25T03:14:37;8.07;;;3.05;;
65096;SDS011;51686;46.758;4.356;2024-03-25T03:17:23;6.70;;;3.03;;
65096;SDS011;51686;46.758;4.356;2024-03-25T03:20:09;7.13;;;2.95;;
65096;SDS011;51686;46.758;4.356;2024-03-25T03:22:55;7.40;;;2.83;;
65096;SDS011;51686;46.758;4.356;2024-03-25T03:25:41;7.07;;;3.10;;
65096;SDS011;51686;46.758;4.356;2024-03-25T03:28:28;7.50;;;3.30;;
65096;SDS011;51686;46.758;4.356;2024-03-25T03:31:14;6.72;;;2.80;;
65096;SDS011;51686;46.758;4.356;2024-03-25T03:34:00;6.55;;;2.83;;
65096;SDS011;51686;46.758;4.356;2024-03-25T03:36:46;6.35;;;2.65;;
65096;SDS011;51686;46.758;4.356;2024-03-25T03:39:32;5.22;;;2.60;;
65096;SDS011;51686;46.758;4.356;2024-03-25T03:42:18;6.53;;;2.88;;
65096;SDS011;51686;46.758;4.356;2024-03-25T03:45:04;6.82;;;3.00;;
65096;SDS011;51686;46.758;4.356;2024-03-25T03:47:50;6.97;;;2.95;;
65096;SDS011;51686;46.758;4.356;2024-03-25T03:50:36;6.82;;;2.78;;
65096;SDS011;51686;46.758;4.356;2024-03-25T03:53:22;6.93;;;2.80;;
65096;SDS011;51686;46.758;4.356;2024-03-25T03:56:08;6.25;;;2.60;;
65096;SDS011;51686;46.758;4.356;2024-03-25T03:58:55;6.88;;;2.92;;
65096;SDS011;51686;46.758;4.356;2024-03-25T04:01:40;6.65;;;2.90;;
65096;SDS011;51686;46.758;4.356;2024-03-25T04:04:26;8.35;;;3.17;;
65096;SDS011;51686;46.758;4.356;2024-03-25T04:07:12;6.03;;;2.53;;
65096;SDS011;51686;46.758;4.356;2024-03-25T04:09:58;6.35;;;2.80;;
65096;SDS011;51686;46.758;4.356;2024-03-25T04:12:45;6.82;;;3.22;;
65096;SDS011;51686;46.758;4.356;2024-03-25T04:15:32;7.68;;;3.05;;
65096;SDS011;51686;46.758;4.356;2024-03-25T04:18:19;8.85;;;3.45;;
65096;SDS011;51686;46.758;4.356;2024-03-25T04:21:05;6.38;;;2.80;;
65096;SDS011;51686;46.758;4.356;2024-03-25T04:23:50;6.95;;;3.03;;
65096;SDS011;51686;46.758;4.356;2024-03-25T04:26:36;6.60;;;2.88;;
65096;SDS011;51686;46.758;4.356;2024-03-25T04:29:23;6.93;;;3.08;;
65096;SDS011;51686;46.758;4.356;2024-03-25T04:32:09;7.35;;;3.10;;
65096;SDS011;51686;46.758;4.356;2024-03-25T04:34:54;6.28;;;2.95;;
65096;SDS011;51686;46.758;4.356;2024-03-25T04:37:40;7.13;;;3.20;;
65096;SDS011;51686;46.758;4.356;2024-03-25T04:40:27;7.53;;;3.17;;
65096;SDS011;51686;46.758;4.356;2024-03-25T04:43:13;7.60;;;3.17;;
65096;SDS011;51686;46.758;4.356;2024-03-25T04:46:02;6.25;;;2.78;;
65096;SDS011;51686;46.758;4.356;2024-03-25T04:48:48;7.10;;;2.80;;
65096;SDS011;51686;46.758;4.356;2024-03-25T04:51:34;6.68;;;3.13;;
65096;SDS011;51686;46.758;4.356;2024-03-25T04:54:20;7.13;;;3.22;;
65096;SDS011;51686;46.758;4.356;2024-03-25T04:57:06;7.53;;;3.20;;
65096;SDS011;51686;46.758;4.356;2024-03-25T04:59:52;7.13;;;3.00;;
65096;SDS011;51686;46.758;4.356;2024-03-25T05:02:38;7.45;;;2.92;;
65096;SDS011;51686;46.758;4.356;2024-03-25T05:05:24;8.52;;;3.88;;
65096;SDS011;51686;46.758;4.356;2024-03-25T05:08:10;8.35;;;3.05;;
65096;SDS011;51686;46.758;4.356;2024-03-25T05:10:56;6.43;;;3.03;;
65096;SDS011;51686;46.758;4.356;2024-03-25T05:13:42;7.60;;;3.42;;
65096;SDS011;51686;46.758;4.356;2024-03-25T05:16:28;7.60;;;3.35;;
65096;SDS011;51686;46.758;4.356;2024-03-25T05:19:14;8.52;;;3.30;;
65096;SDS011;51686;46.758;4.356;2024-03-25T05:22:00;6.78;;;3.05;;
65096;SDS011;51686;46.758;4.356;2024-03-25T05:24:46;7.40;;;3.10;;
65096;SDS011;51686;46.758;4.356;2024-03-25T05:27:32;7.22;;;3.10;;
65096;SDS011;51686;46.758;4.356;2024-03-25T05:30:18;6.78;;;3.00;;
65096;SDS011;51686;46.758;4.356;2024-03-25T05:33:04;7.25;;;2.85;;
65096;SDS011;51686;46.758;4.356;2024-03-25T05:35:50;9.20;;;3.00;;
65096;SDS011;51686;46.758;4.356;2024-03-25T05:38:36;6.82;;;2.95;;
65096;SDS011;51686;46.758;4.356;2024-03-25T05:41:21;6.40;;;2.90;;
65096;SDS011;51686;46.758;4.356;2024-03-25T05:44:07;7.28;;;2.95;;
65096;SDS011;51686;46.758;4.356;2024-03-25T05:46:53;7.07;;;3.20;;
65096;SDS011;51686;46.758;4.356;2024-03-25T05:49:39;6.68;;;2.70;;
65096;SDS011;51686;46.758;4.356;2024-03-25T05:52:28;6.45;;;2.90;;
65096;SDS011;51686;46.758;4.356;2024-03-25T05:55:14;7.35;;;3.00;;
65096;SDS011;51686;46.758;4.356;2024-03-25T05:58:00;7.03;;;3.00;;
65096;SDS011;51686;46.758;4.356;2024-03-25T06:00:46;6.95;;;2.95;;
65096;SDS011;51686;46.758;4.356;2024-03-25T06:03:33;6.90;;;2.90;;
65096;SDS011;51686;46.758;4.356;2024-03-25T06:06:19;7.53;;;3.03;;
65096;SDS011;51686;46.758;4.356;2024-03-25T06:09:05;7.05;;;3.17;;
65096;SDS011;51686;46.758;4.356;2024-03-25T06:11:51;7.57;;;3.22;;
65096;SDS011;51686;46.758;4.356;2024-03-25T06:14:37;8.05;;;3.22;;
65096;SDS011;51686;46.758;4.356;2024-03-25T06:17:23;6.80;;;3.20;;
65096;SDS011;51686;46.758;4.356;2024-03-25T06:20:09;7.97;;;3.45;;
65096;SDS011;51686;46.758;4.356;2024-03-25T06:22:56;7.35;;;3.20;;
65096;SDS011;51686;46.758;4.356;2024-03-25T06:25:42;7.43;;;3.05;;
65096;SDS011;51686;46.758;4.356;2024-03-25T06:28:28;6.68;;;3.00;;
65096;SDS011;51686;46.758;4.356;2024-03-25T06:31:13;8.27;;;2.90;;
65096;SDS011;51686;46.758;4.356;2024-03-25T06:34:18;7.78;;;3.20;;
65096;SDS011;51686;46.758;4.356;2024-03-25T06:37:07;10.35;;;3.50;;
65096;SDS011;51686;46.758;4.356;2024-03-25T06:39:54;8.13;;;3.10;;
65096;SDS011;51686;46.758;4.356;2024-03-25T06:42:42;7.38;;;2.95;;
65096;SDS011;51686;46.758;4.356;2024-03-25T06:45:28;8.73;;;3.30;;
65096;SDS011;51686;46.758;4.356;2024-03-25T06:48:14;9.20;;;3.17;;
65096;SDS011;51686;46.758;4.356;2024-03-25T06:51:00;8.10;;;2.70;;
65096;SDS011;51686;46.758;4.356;2024-03-25T06:53:48;7.07;;;3.03;;
65096;SDS011;51686;46.758;4.356;2024-03-25T06:56:34;7.97;;;3.10;;
65096;SDS011;51686;46.758;4.356;2024-03-25T06:59:20;6.82;;;2.92;;
65096;SDS011;51686;46.758;4.356;2024-03-25T07:02:06;6.57;;;3.00;;
65096;SDS011;51686;46.758;4.356;2024-03-25T07:04:53;7.38;;;2.90;;
65096;SDS011;51686;46.758;4.356;2024-03-25T07:07:39;6.03;;;2.70;;
65096;SDS011;51686;46.758;4.356;2024-03-25T07:10:24;6.85;;;2.95;;
65096;SDS011;51686;46.758;4.356;2024-03-25T07:13:10;8.02;;;3.30;;
65096;SDS011;51686;46.758;4.356;2024-03-25T07:15:57;7.50;;;2.90;;
65096;SDS011;51686;46.758;4.356;2024-03-25T07:18:43;7.80;;;3.03;;
65096;SDS011;51686;46.758;4.356;2024-03-25T07:21:28;6.30;;;2.58;;
65096;SDS011;51686;46.758;4.356;2024-03-25T07:24:14;5.93;;;2.60;;
65096;SDS011;51686;46.758;4.356;2024-03-25T07:27:00;6.55;;;2.72;;
65096;SDS011;51686;46.758;4.356;2024-03-25T07:29:46;6.13;;;2.72;;
65096;SDS011;51686;46.758;4.356;2024-03-25T07:32:33;7.95;;;2.83;;
65096;SDS011;51686;46.758;4.356;2024-03-25T07:35:20;6.15;;;2.90;;
65096;SDS011;51686;46.758;4.356;2024-03-25T07:38:05;6.65;;;2.90;;
65096;SDS011;51686;46.758;4.356;2024-03-25T07:40:52;6.18;;;2.55;;
65096;SDS011;51686;46.758;4.356;2024-03-25T07:43:38;6.70;;;2.80;;
65096;SDS011;51686;46.758;4.356;2024-03-25T07:46:24;6.95;;;2.75;;
65096;SDS011;51686;46.758;4.356;2024-03-25T07:49:10;7.45;;;2.55;;
65096;SDS011;51686;46.758;4.356;2024-03-25T07:51:56;7.45;;;2.78;;
65096;SDS011;51686;46.758;4.356;2024-03-25T07:54:42;6.75;;;2.67;;
65096;SDS011;51686;46.758;4.356;2024-03-25T07:57:28;6.88;;;2.70;;
65096;SDS011;51686;46.758;4.356;2024-03-25T08:00:14;6.05;;;2.70;;
65096;SDS011;51686;46.758;4.356;2024-03-25T08:03:00;7.32;;;2.63;;
65096;SDS011;51686;46.758;4.356;2024-03-25T08:05:46;6.10;;;2.60;;
65096;SDS011;51686;46.758;4.356;2024-03-25T08:08:32;6.35;;;2.50;;
65096;SDS011;51686;46.758;4.356;2024-03-25T08:11:18;6.55;;;2.47;;
65096;SDS011;51686;46.758;4.356;2024-03-25T08:14:04;6.05;;;2.30;;
65096;SDS011;51686;46.758;4.356;2024-03-25T08:16:50;6.03;;;2.42;;
65096;SDS011;51686;46.758;4.356;2024-03-25T08:19:36;6.50;;;2.60;;
65096;SDS011;51686;46.758;4.356;2024-03-25T08:22:22;6.90;;;2.72;;
65096;SDS011;51686;46.758;4.356;2024-03-25T08:25:08;5.43;;;2.40;;
65096;SDS011;51686;46.758;4.356;2024-03-25T08:27:54;4.60;;;2.20;;
65096;SDS011;51686;46.758;4.356;2024-03-25T08:30:40;6.25;;;2.45;;
65096;SDS011;51686;46.758;4.356;2024-03-25T08:33:26;5.78;;;2.28;;
65096;SDS011;51686;46.758;4.356;2024-03-25T08:36:12;6.10;;;2.45;;
65096;SDS011;51686;46.758;4.356;2024-03-25T08:38:57;5.50;;;2.30;;
65096;SDS011;51686;46.758;4.356;2024-03-25T08:41:43;5.25;;;2.30;;
65096;SDS011;51686;46.758;4.356;2024-03-25T08:44:29;7.95;;;2.70;;
65096;SDS011;51686;46.758;4.356;2024-03-25T08:47:15;5.60;;;2.25;;
65096;SDS011;51686;46.758;4.356;2024-03-25T08:50:01;6.18;;;2.30;;
65096;SDS011;51686;46.758;4.356;2024-03-25T08:52:47;5.13;;;2.17;;
65096;SDS011;51686;46.758;4.356;2024-03-25T08:55:33;5.25;;;2.15;;
65096;SDS011;51686;46.758;4.356;2024-03-25T08:58:19;5.75;;;2.20;;
65096;SDS011;51686;46.758;4.356;2024-03-25T09:01:05;6.72;;;2.20;;
65096;SDS011;51686;46.758;4.356;2024-03-25T09:03:51;6.65;;;2.63;;
65096;SDS011;51686;46.758;4.356;2024-03-25T09:06:37;5.35;;;2.10;;
65096;SDS011;51686;46.758;4.356;2024-03-25T09:09:23;3.95;;;1.90;;
65096;SDS011;51686;46.758;4.356;2024-03-25T09:12:28;5.78;;;2.00;;
65096;SDS011;51686;46.758;4.356;2024-03-25T09:15:14;5.82;;;2.10;;
65096;SDS011;51686;46.758;4.356;2024-03-25T09:18:00;6.10;;;2.00;;
65096;SDS011;51686;46.758;4.356;2024-03-25T09:20:46;4.25;;;1.90;;
65096;SDS011;51686;46.758;4.356;2024-03-25T09:23:32;3.97;;;1.83;;
65096;SDS011;51686;46.758;4.356;2024-03-25T09:26:18;3.95;;;1.80;;
65096;SDS011;51686;46.758;4.356;2024-03-25T09:29:03;4.35;;;1.92;;
65096;SDS011;51686;46.758;4.356;2024-03-25T09:31:49;4.15;;;1.88;;
65096;SDS011;51686;46.758;4.356;2024-03-25T09:34:35;5.07;;;1.90;;
65096;SDS011;51686;46.758;4.356;2024-03-25T09:37:21;5.15;;;2.08;;
65096;SDS011;51686;46.758;4.356;2024-03-25T09:40:07;5.50;;;2.08;;
65096;SDS011;51686;46.758;4.356;2024-03-25T09:42:55;5.60;;;1.90;;
65096;SDS011;51686;46.758;4.356;2024-03-25T09:45:41;5.15;;;1.85;;
65096;SDS011;51686;46.758;4.356;2024-03-25T09:48:28;5.72;;;1.88;;
65096;SDS011;51686;46.758;4.356;2024-03-25T09:51:15;5.40;;;1.90;;
65096;SDS011;51686;46.758;4.356;2024-03-25T09:54:01;3.85;;;1.80;;
65096;SDS011;51686;46.758;4.356;2024-03-25T09:56:49;3.83;;;1.73;;
65096;SDS011;51686;46.758;4.356;2024-03-25T09:59:35;3.95;;;1.67;;
65096;SDS011;51686;46.758;4.356;2024-03-25T10:02:21;4.45;;;1.83;;
65096;SDS011;51686;46.758;4.356;2024-03-25T10:05:12;4.15;;;1.70;;
65096;SDS011;51686;46.758;4.356;2024-03-25T10:07:58;3.33;;;1.60;;
65096;SDS011;51686;46.758;4.356;2024-03-25T10:10:44;4.05;;;1.70;;
65096;SDS011;51686;46.758;4.356;2024-03-25T10:13:30;3.38;;;1.60;;
65096;SDS011;51686;46.758;4.356;2024-03-25T10:16:16;3.45;;;1.70;;
65096;SDS011;51686;46.758;4.356;2024-03-25T10:19:02;3.95;;;1.90;;
65096;SDS011;51686;46.758;4.356;2024-03-25T10:21:48;5.07;;;2.00;;
65096;SDS011;51686;46.758;4.356;2024-03-25T10:24:41;4.07;;;1.77;;
65096;SDS011;51686;46.758;4.356;2024-03-25T10:27:28;4.68;;;1.65;;
65096;SDS011;51686;46.758;4.356;2024-03-25T10:30:15;4.72;;;1.77;;
65096;SDS011;51686;46.758;4.356;2024-03-25T10:33:01;4.13;;;1.80;;
65096;SDS011;51686;46.758;4.356;2024-03-25T10:35:51;3.55;;;1.58;;
65096;SDS011;51686;46.758;4.356;2024-03-25T10:38:37;2.85;;;1.60;;
65096;SDS011;51686;46.758;4.356;2024-03-25T10:41:24;3.80;;;1.70;;
65096;SDS011;51686;46.758;4.356;2024-03-25T10:44:11;3.40;;;1.60;;
65096;SDS011;51686;46.758;4.356;2024-03-25T10:47:01;2.90;;;1.60;;
65096;SDS011;51686;46.758;4.356;2024-03-25T10:49:53;2.75;;;1.50;;
65096;SDS011;51686;46.758;4.356;2024-03-25T10:52:42;3.10;;;1.63;;
65096;SDS011;51686;46.758;4.356;2024-03-25T10:55:28;2.35;;;1.50;;
65096;SDS011;51686;46.758;4.356;2024-03-25T10:58:15;4.30;;;1.70;;
65096;SDS011;51686;46.758;4.356;2024-03-25T11:01:01;3.72;;;1.60;;
65096;SDS011;51686;46.758;4.356;2024-03-25T11:03:48;2.22;;;1.60;;
65096;SDS011;51686;46.758;4.356;2024-03-25T11:06:34;3.85;;;1.80;;
65096;SDS011;51686;46.758;4.356;2024-03-25T11:09:26;3.83;;;1.58;;
65096;SDS011;51686;46.758;4.356;2024-03-25T11:12:12;4.20;;;1.80;;
65096;SDS011;51686;46.758;4.356;2024-03-25T11:15:00;2.53;;;1.67;;
65096;SDS011;51686;46.758;4.356;2024-03-25T11:17:50;4.53;;;1.60;;
65096;SDS011;51686;46.758;4.356;2024-03-25T11:20:36;2.72;;;1.50;;
65096;SDS011;51686;46.758;4.356;2024-03-25T11:23:24;2.33;;;1.50;;
65096;SDS011;51686;46.758;4.356;2024-03-25T11:26:19;3.47;;;1.50;;
65096;SDS011;51686;46.758;4.356;2024-03-25T11:29:06;4.95;;;1.70;;
65096;SDS011;51686;46.758;4.356;2024-03-25T11:31:52;2.20;;;1.42;;
65096;SDS011;51686;46.758;4.356;2024-03-25T11:34:38;3.63;;;1.52;;
65096;SDS011;51686;46.758;4.356;2024-03-25T11:37:39;3.85;;;1.70;;
65096;SDS011;51686;46.758;4.356;2024-03-25T11:40:25;3.13;;;1.73;;
65096;SDS011;51686;46.758;4.356;2024-03-25T11:43:18;2.75;;;1.58;;
65096;SDS011;51686;46.758;4.356;2024-03-25T11:46:05;3.38;;;1.60;;
65096;SDS011;51686;46.758;4.356;2024-03-25T11:48:51;4.20;;;1.65;;
65096;SDS011;51686;46.758;4.356;2024-03-25T11:51:40;3.80;;;1.70;;
65096;SDS011;51686;46.758;4.356;2024-03-25T11:54:28;3.40;;;1.60;;
65096;SDS011;51686;46.758;4.356;2024-03-25T11:57:14;4.40;;;1.70;;
65096;SDS011;51686;46.758;4.356;2024-03-25T12:00:00;2.20;;;1.42;;
65096;SDS011;51686;46.758;4.356;2024-03-25T12:02:46;3.15;;;1.40;;
65096;SDS011;51686;46.758;4.356;2024-03-25T12:05:33;3.45;;;1.67;;
65096;SDS011;51686;46.758;4.356;2024-03-25T12:08:19;1.73;;;1.40;;
65096;SDS011;51686;46.758;4.356;2024-03-25T12:11:06;2.80;;;1.40;;
65096;SDS011;51686;46.758;4.356;2024-03-25T12:14:04;4.47;;;1.70;;
65096;SDS011;51686;46.758;4.356;2024-03-25T12:16:50;5.55;;;1.92;;
65096;SDS011;51686;46.758;4.356;2024-03-25T12:19:39;4.15;;;1.80;;
65096;SDS011;51686;46.758;4.356;2024-03-25T12:22:27;5.28;;;1.90;;
65096;SDS011;51686;46.758;4.356;2024-03-25T12:25:13;4.88;;;1.80;;
65096;SDS011;51686;46.758;4.356;2024-03-25T12:27:58;3.72;;;1.55;;
65096;SDS011;51686;46.758;4.356;2024-03-25T12:30:55;5.82;;;1.80;;
65096;SDS011;51686;46.758;4.356;2024-03-25T12:33:43;4.88;;;1.70;;
65096;SDS011;51686;46.758;4.356;2024-03-25T12:36:30;3.80;;;1.70;;
65096;SDS011;51686;46.758;4.356;2024-03-25T12:39:19;5.35;;;1.80;;
65096;SDS011;51686;46.758;4.356;2024-03-25T12:42:05;5.95;;;1.80;;
65096;SDS011;51686;46.758;4.356;2024-03-25T12:44:52;2.53;;;1.45;;
65096;SDS011;51686;46.758;4.356;2024-03-25T12:47:38;3.00;;;1.40;;
65096;SDS011;51686;46.758;4.356;2024-03-25T12:50:24;3.38;;;1.40;;
65096;SDS011;51686;46.758;4.356;2024-03-25T12:53:16;2.83;;;1.45;;
65096;SDS011;51686;46.758;4.356;2024-03-25T12:56:03;4.03;;;1.52;;
65096;SDS011;51686;46.758;4.356;2024-03-25T12:58:49;4.45;;;1.52;;
65096;SDS011;51686;46.758;4.356;2024-03-25T13:01:34;2.70;;;1.30;;
65096;SDS011;51686;46.758;4.356;2024-03-25T13:04:21;3.63;;;1.42;;
65096;SDS011;51686;46.758;4.356;2024-03-25T13:07:07;3.10;;;1.40;;
65096;SDS011;51686;46.758;4.356;2024-03-25T13:09:53;3.70;;;1.42;;
65096;SDS011;51686;46.758;4.356;2024-03-25T13:12:39;2.67;;;1.42;;
65096;SDS011;51686;46.758;4.356;2024-03-25T13:15:25;2.53;;;1.40;;
65096;SDS011;51686;46.758;4.356;2024-03-25T13:18:11;4.38;;;1.58;;
65096;SDS011;51686;46.758;4.356;2024-03-25T13:20:57;2.67;;;1.58;;
65096;SDS011;51686;46.758;4.356;2024-03-25T13:23:45;1.77;;;1.23;;
65096;SDS011;51686;46.758;4.356;2024-03-25T13:26:31;5.75;;;1.60;;
65096;SDS011;51686;46.758;4.356;2024-03-25T13:29:17;2.47;;;1.50;;
65096;SDS011;51686;46.758;4.356;2024-03-25T13:32:03;3.15;;;1.50;;
65096;SDS011;51686;46.758;4.356;2024-03-25T13:34:49;3.45;;;1.40;;
65096;SDS011;51686;46.758;4.356;2024-03-25T13:37:36;1.63;;;1.20;;
65096;SDS011;51686;46.758;4.356;2024-03-25T13:40:22;1.80;;;1.27;;
65096;SDS011;51686;46.758;4.356;2024-03-25T13:43:08;2.45;;;1.40;;
65096;SDS011;51686;46.758;4.356;2024-03-25T13:45:55;2.58;;;1.20;;
65096;SDS011;51686;46.758;4.356;2024-03-25T13:48:42;2.45;;;1.30;;
65096;SDS011;51686;46.758;4.356;2024-03-25T13:51:28;1.95;;;1.15;;
65096;SDS011;51686;46.758;4.356;2024-03-25T13:54:14;3.60;;;1.42;;
65096;SDS011;51686;46.758;4.356;2024-03-25T13:57:00;3.05;;;1.38;;
65096;SDS011;51686;46.758;4.356;2024-03-25T13:59:46;2.38;;;1.23;;
65096;SDS011;51686;46.758;4.356;2024-03-25T14:02:32;2.88;;;1.17;;
65096;SDS011;51686;46.758;4.356;2024-03-25T14:05:17;4.03;;;1.35;;
65096;SDS011;51686;46.758;4.356;2024-03-25T14:08:03;3.40;;;1.60;;
65096;SDS011;51686;46.758;4.356;2024-03-25T14:10:59;3.45;;;1.20;;
65096;SDS011;51686;46.758;4.356;2024-03-25T14:13:45;4.32;;;1.50;;
65096;SDS011;51686;46.758;4.356;2024-03-25T14:16:31;2.25;;;1.23;;
65096;SDS011;51686;46.758;4.356;2024-03-25T14:19:17;2.15;;;1.30;;
65096;SDS011;51686;46.758;4.356;2024-03-25T14:22:03;1.75;;;1.10;;
65096;SDS011;51686;46.758;4.356;2024-03-25T14:24:49;1.65;;;1.23;;
65096;SDS011;51686;46.758;4.356;2024-03-25T14:27:35;2.85;;;1.30;;
65096;SDS011;51686;46.758;4.356;2024-03-25T14:30:21;1.70;;;1.17;;
65096;SDS011;51686;46.758;4.356;2024-03-25T14:33:07;2.55;;;1.30;;
65096;SDS011;51686;46.758;4.356;2024-03-25T14:35:53;2.58;;;1.20;;
65096;SDS011;51686;46.758;4.356;2024-03-25T14:38:39;2.63;;;1.20;;
65096;SDS011;51686;46.758;4.356;2024-03-25T14:41:25;2.00;;;1.20;;
65096;SDS011;51686;46.758;4.356;2024-03-25T14:44:11;3.00;;;1.40;;
65096;SDS011;51686;46.758;4.356;2024-03-25T14:46:56;2.45;;;1.40;;
65096;SDS011;51686;46.758;4.356;2024-03-25T14:49:45;2.85;;;1.30;;
65096;SDS011;51686;46.758;4.356;2024-03-25T14:52:31;4.50;;;1.60;;
65096;SDS011;51686;46.758;4.356;2024-03-25T14:55:17;2.97;;;1.67;;
65096;SDS011;51686;46.758;4.356;2024-03-25T14:58:03;3.55;;;1.60;;
65096;SDS011;51686;46.758;4.356;2024-03-25T15:00:49;5.05;;;1.80;;
65096;SDS011;51686;46.758;4.356;2024-03-25T15:03:35;2.35;;;1.50;;
65096;SDS011;51686;46.758;4.356;2024-03-25T15:06:21;4.22;;;1.70;;
65096;SDS011;51686;46.758;4.356;2024-03-25T15:09:07;3.30;;;1.40;;
65096;SDS011;51686;46.758;4.356;2024-03-25T15:11:53;2.47;;;1.50;;
65096;SDS011;51686;46.758;4.356;2024-03-25T15:14:39;3.35;;;1.55;;
65096;SDS011;51686;46.758;4.356;2024-03-25T15:17:25;3.53;;;1.63;;
65096;SDS011;51686;46.758;4.356;2024-03-25T15:20:11;3.17;;;1.50;;
65096;SDS011;51686;46.758;4.356;2024-03-25T15:22:57;4.07;;;1.40;;
65096;SDS011;51686;46.758;4.356;2024-03-25T15:25:43;2.33;;;1.30;;
65096;SDS011;51686;46.758;4.356;2024-03-25T15:28:29;3.05;;;1.30;;
65096;SDS011;51686;46.758;4.356;2024-03-25T15:31:15;2.17;;;1.40;;
65096;SDS011;51686;46.758;4.356;2024-03-25T15:34:01;3.45;;;1.30;;
65096;SDS011;51686;46.758;4.356;2024-03-25T15:36:47;1.73;;;1.20;;
65096;SDS011;51686;46.758;4.356;2024-03-25T15:39:35;4.68;;;1.40;;
65096;SDS011;51686;46.758;4.356;2024-03-25T15:42:20;4.53;;;1.50;;
65096;SDS011;51686;46.758;4.356;2024-03-25T15:45:07;3.35;;;1.50;;
65096;SDS011;51686;46.758;4.356;2024-03-25T15:47:53;2.83;;;1.50;;
65096;SDS011;51686;46.758;4.356;2024-03-25T15:50:39;3.78;;;1.45;;
65096;SDS011;51686;46.758;4.356;2024-03-25T15:53:25;3.47;;;1.60;;
65096;SDS011;51686;46.758;4.356;2024-03-25T15:56:11;3.58;;;1.50;;
65096;SDS011;51686;46.758;4.356;2024-03-25T15:58:57;4.32;;;1.63;;
65096;SDS011;51686;46.758;4.356;2024-03-25T16:01:43;3.15;;;1.48;;
65096;SDS011;51686;46.758;4.356;2024-03-25T16:04:29;2.35;;;1.40;;
65096;SDS011;51686;46.758;4.356;2024-03-25T16:07:15;2.20;;;1.33;;
65096;SDS011;51686;46.758;4.356;2024-03-25T16:10:01;3.70;;;1.65;;
65096;SDS011;51686;46.758;4.356;2024-03-25T16:12:48;3.35;;;1.42;;
65096;SDS011;51686;46.758;4.356;2024-03-25T16:15:36;3.63;;;1.70;;
65096;SDS011;51686;46.758;4.356;2024-03-25T16:18:22;2.80;;;1.33;;
65096;SDS011;51686;46.758;4.356;2024-03-25T16:21:14;2.72;;;1.50;;
65096;SDS011;51686;46.758;4.356;2024-03-25T16:24:01;3.05;;;1.50;;
65096;SDS011;51686;46.758;4.356;2024-03-25T16:26:48;3.97;;;1.40;;
65096;SDS011;51686;46.758;4.356;2024-03-25T16:29:34;3.13;;;1.45;;
65096;SDS011;51686;46.758;4.356;2024-03-25T16:32:20;2.30;;;1.30;;
65096;SDS011;51686;46.758;4.356;2024-03-25T16:35:06;3.20;;;1.50;;
65096;SDS011;51686;46.758;4.356;2024-03-25T16:37:52;3.30;;;1.50;;
65096;SDS011;51686;46.758;4.356;2024-03-25T16:40:39;2.67;;;1.48;;
65096;SDS011;51686;46.758;4.356;2024-03-25T16:43:25;3.13;;;1.60;;